sensor_id;sensor_type;location;lat;lon;timestamp;temperature;humidity
3023;DHT22;1521;53.584;9.938;2023-01-31T08:26:54;4.70;99.90
3023;DHT22;1521;53.584;9.938;2023-01-31T08:29:19;4.70;99.90
3023;DHT22;1521;53.584;9.938;2023-01-31T08:31:45;4.80;99.90
3023;DHT22;1521;53.584;9.938;2023-01-31T08:34:10;4.80;99.90
3023;DHT22;1521;53.584;9.938;2023-01-31T08:36:36;4.90;99.90
3023;DHT22;1521;53.584;9.938;2023-01-31T08:39:02;4.90;99.90
3023;DHT22;1521;53.584;9.938;2023-01-31T08:41:31;5.00;88.80
3023;DHT22;1521;53.584;9.938;2023-01-31T08:43:56;5.00;74.30
3023;DHT22;1521;53.584;9.938;2023-01-31T08:46:24;5.00;62.20
3023;DHT22;1521;53.584;9.938;2023-01-31T08:48:50;5.10;50.70
3023;DHT22;1521;53.584;9.938;2023-01-31T08:51:15;5.10;18.50
3023;DHT22;1521;53.584;9.938;2023-01-31T08:53:42;5.20;1.00
3023;DHT22;1521;53.584;9.938;2023-01-31T08:56:09;5.20;1.00
3023;DHT22;1521;53.584;9.938;2023-01-31T08:58:36;5.20;1.00
3023;DHT22;1521;53.584;9.938;2023-01-31T09:01:08;5.20;1.00
3023;DHT22;1521;53.584;9.938;2023-01-31T09:03:34;5.20;1.00
3023;DHT22;1521;53.584;9.938;2023-01-31T09:06:00;5.20;1.00
3023;DHT22;1521;53.584;9.938;2023-01-31T09:08:26;5.30;1.00
3023;DHT22;1521;53.584;9.938;2023-01-31T09:10:53;5.30;1.00
3023;DHT22;1521;53.584;9.938;2023-01-31T09:13:19;5.30;1.00
3023;DHT22;1521;53.584;9.938;2023-01-31T09:15:45;5.30;1.00
3023;DHT22;1521;53.584;9.938;2023-01-31T09:18:10;5.30;1.00
3023;DHT22;1521;53.584;9.938;2023-01-31T09:20:36;5.30;1.00
3023;DHT22;1521;53.584;9.938;2023-01-31T09:23:02;5.30;14.90
3023;DHT22;1521;53.584;9.938;2023-01-31T09:25:27;5.30;17.50
3023;DHT22;1521;53.584;9.938;2023-01-31T09:27:53;5.30;1.00
3023;DHT22;1521;53.584;9.938;2023-01-31T09:30:19;5.40;1.00
3023;DHT22;1521;53.584;9.938;2023-01-31T09:32:45;5.40;1.00
3023;DHT22;1521;53.584;9.938;2023-01-31T09:35:12;5.40;1.00
3023;DHT22;1521;53.584;9.938;2023-01-31T09:37:37;5.40;1.00
3023;DHT22;1521;53.584;9.938;2023-01-31T09:40:04;5.40;1.00
3023;DHT22;1521;53.584;9.938;2023-01-31T09:42:35;5.40;1.00
3023;DHT22;1521;53.584;9.938;2023-01-31T09:45:14;5.40;1.00
3023;DHT22;1521;53.584;9.938;2023-01-31T09:47:44;5.30;25.10
3023;DHT22;1521;53.584;9.938;2023-01-31T09:50:38;5.30;55.10
3023;DHT22;1521;53.584;9.938;2023-01-31T09:53:05;5.30;92.90
3023;DHT22;1521;53.584;9.938;2023-01-31T09:56:02;5.20;99.90
3023;DHT22;1521;53.584;9.938;2023-01-31T10:04:01;5.20;99.90
3023;DHT22;1521;53.584;9.938;2023-01-31T10:06:57;5.20;99.90
3023;DHT22;1521;53.584;9.938;2023-01-31T10:09:39;5.10;99.90
3023;DHT22;1521;53.584;9.938;2023-01-31T10:12:13;5.10;99.90
3023;DHT22;1521;53.584;9.938;2023-01-31T10:14:56;5.20;99.90
3023;DHT22;1521;53.584;9.938;2023-01-31T10:17:54;5.20;99.90
3023;DHT22;1521;53.584;9.938;2023-01-31T10:20:37;5.20;99.90
3023;DHT22;1521;53.584;9.938;2023-01-31T10:23:30;5.20;99.90
3023;DHT22;1521;53.584;9.938;2023-01-31T10:26:04;5.20;99.90
3023;DHT22;1521;53.584;9.938;2023-01-31T10:31:10;5.30;99.90
3023;DHT22;1521;53.584;9.938;2023-01-31T10:33:49;5.40;99.90
3023;DHT22;1521;53.584;9.938;2023-01-31T10:36:23;5.40;99.90
3023;DHT22;1521;53.584;9.938;2023-01-31T10:41:58;5.40;99.90
3023;DHT22;1521;53.584;9.938;2023-01-31T10:44:40;5.50;99.90
3023;DHT22;1521;53.584;9.938;2023-01-31T10:47:15;5.40;99.90
3023;DHT22;1521;53.584;9.938;2023-01-31T10:49:46;5.50;99.90
3023;DHT22;1521;53.584;9.938;2023-01-31T10:52:29;5.50;99.90
3023;DHT22;1521;53.584;9.938;2023-01-31T10:57:28;5.50;99.90
3023;DHT22;1521;53.584;9.938;2023-01-31T10:59:54;5.60;99.90
3023;DHT22;1521;53.584;9.938;2023-01-31T11:02:25;5.60;99.90
3023;DHT22;1521;53.584;9.938;2023-01-31T11:04:57;5.60;99.90
3023;DHT22;1521;53.584;9.938;2023-01-31T11:07:26;5.60;99.90
3023;DHT22;1521;53.584;9.938;2023-01-31T11:09:53;5.60;99.90
3023;DHT22;1521;53.584;9.938;2023-01-31T11:12:20;5.60;99.90
3023;DHT22;1521;53.584;9.938;2023-01-31T11:15:12;5.60;99.90
3023;DHT22;1521;53.584;9.938;2023-01-31T11:17:41;5.60;99.90
3023;DHT22;1521;53.584;9.938;2023-01-31T11:20:20;5.70;99.90
3023;DHT22;1521;53.584;9.938;2023-01-31T11:22:46;5.70;99.90
3023;DHT22;1521;53.584;9.938;2023-01-31T11:25:20;5.80;99.90
3023;DHT22;1521;53.584;9.938;2023-01-31T11:27:47;5.80;99.90
3023;DHT22;1521;53.584;9.938;2023-01-31T11:30:28;5.80;99.90
3023;DHT22;1521;53.584;9.938;2023-01-31T11:32:56;5.80;99.90
3023;DHT22;1521;53.584;9.938;2023-01-31T11:35:30;5.80;99.90
3023;DHT22;1521;53.584;9.938;2023-01-31T11:38:02;5.90;99.90
3023;DHT22;1521;53.584;9.938;2023-01-31T11:40:35;6.00;99.90
3023;DHT22;1521;53.584;9.938;2023-01-31T11:43:03;6.00;99.90
3023;DHT22;1521;53.584;9.938;2023-01-31T11:45:37;6.00;99.90
3023;DHT22;1521;53.584;9.938;2023-01-31T11:48:13;6.10;99.90
3023;DHT22;1521;53.584;9.938;2023-01-31T11:50:53;6.10;99.90
3023;DHT22;1521;53.584;9.938;2023-01-31T11:53:45;6.10;99.90
3023;DHT22;1521;53.584;9.938;2023-01-31T11:56:19;6.10;99.90
3023;DHT22;1521;53.584;9.938;2023-01-31T11:58:48;6.10;99.90
3023;DHT22;1521;53.584;9.938;2023-01-31T12:01:19;6.20;99.90
3023;DHT22;1521;53.584;9.938;2023-01-31T12:04:05;6.10;99.90
3023;DHT22;1521;53.584;9.938;2023-01-31T12:06:37;6.20;99.90
3023;DHT22;1521;53.584;9.938;2023-01-31T12:09:05;6.20;99.90
3023;DHT22;1521;53.584;9.938;2023-01-31T12:11:50;6.20;99.90
3023;DHT22;1521;53.584;9.938;2023-01-31T12:14:17;6.20;99.90
3023;DHT22;1521;53.584;9.938;2023-01-31T12:16:45;6.20;99.90
3023;DHT22;1521;53.584;9.938;2023-01-31T12:19:23;6.20;99.90
3023;DHT22;1521;53.584;9.938;2023-01-31T12:22:26;6.20;99.90
3023;DHT22;1521;53.584;9.938;2023-01-31T12:27:46;6.30;99.90
3023;DHT22;1521;53.584;9.938;2023-01-31T12:30:20;6.40;99.90
3023;DHT22;1521;53.584;9.938;2023-01-31T12:55:15;6.50;99.90
3023;DHT22;1521;53.584;9.938;2023-01-31T12:58:07;6.50;99.90
3023;DHT22;1521;53.584;9.938;2023-01-31T13:00:47;6.50;99.90
3023;DHT22;1521;53.584;9.938;2023-01-31T13:08:26;6.70;99.90
3023;DHT22;1521;53.584;9.938;2023-01-31T13:11:06;6.70;99.90
3023;DHT22;1521;53.584;9.938;2023-01-31T13:13:46;6.70;99.90
3023;DHT22;1521;53.584;9.938;2023-01-31T13:16:35;6.80;99.90
3023;DHT22;1521;53.584;9.938;2023-01-31T13:19:26;6.90;99.90
3023;DHT22;1521;53.584;9.938;2023-01-31T13:21:57;6.90;99.90
3023;DHT22;1521;53.584;9.938;2023-01-31T13:24:30;6.80;99.90
3023;DHT22;1521;53.584;9.938;2023-01-31T13:27:25;6.80;99.90
3023;DHT22;1521;53.584;9.938;2023-01-31T13:30:03;6.90;99.90
3023;DHT22;1521;53.584;9.938;2023-01-31T13:35:03;7.00;99.90
3023;DHT22;1521;53.584;9.938;2023-01-31T13:37:32;7.10;99.90
3023;DHT22;1521;53.584;9.938;2023-01-31T13:40:15;7.20;99.90
3023;DHT22;1521;53.584;9.938;2023-01-31T13:42:42;7.20;99.90
3023;DHT22;1521;53.584;9.938;2023-01-31T13:45:08;7.20;99.90
3023;DHT22;1521;53.584;9.938;2023-01-31T13:47:48;7.20;99.90
3023;DHT22;1521;53.584;9.938;2023-01-31T13:50:37;7.30;99.90
3023;DHT22;1521;53.584;9.938;2023-01-31T13:53:34;7.30;99.90
3023;DHT22;1521;53.584;9.938;2023-01-31T13:55:59;7.40;99.90
3023;DHT22;1521;53.584;9.938;2023-01-31T13:58:30;7.40;99.90
3023;DHT22;1521;53.584;9.938;2023-01-31T14:01:11;7.40;99.90
3023;DHT22;1521;53.584;9.938;2023-01-31T14:09:34;7.30;99.90
3023;DHT22;1521;53.584;9.938;2023-01-31T14:15:43;7.20;99.90
3023;DHT22;1521;53.584;9.938;2023-01-31T14:20:28;7.30;99.90
3023;DHT22;1521;53.584;9.938;2023-01-31T14:23:28;7.20;99.90
3023;DHT22;1521;53.584;9.938;2023-01-31T14:25:55;7.20;99.90
3023;DHT22;1521;53.584;9.938;2023-01-31T14:28:21;7.20;99.90
3023;DHT22;1521;53.584;9.938;2023-01-31T14:30:47;7.20;99.90
3023;DHT22;1521;53.584;9.938;2023-01-31T14:33:17;7.20;99.90
3023;DHT22;1521;53.584;9.938;2023-01-31T14:38:45;7.20;99.90
3023;DHT22;1521;53.584;9.938;2023-01-31T14:41:27;7.20;99.90
3023;DHT22;1521;53.584;9.938;2023-01-31T14:47:00;7.10;99.90
3023;DHT22;1521;53.584;9.938;2023-01-31T14:49:55;7.20;99.90
3023;DHT22;1521;53.584;9.938;2023-01-31T14:52:37;7.10;99.90
3023;DHT22;1521;53.584;9.938;2023-01-31T14:57:41;7.10;99.90
3023;DHT22;1521;53.584;9.938;2023-01-31T15:00:20;7.10;99.90
3023;DHT22;1521;53.584;9.938;2023-01-31T15:02:49;7.20;99.90
3023;DHT22;1521;53.584;9.938;2023-01-31T15:10:58;7.20;99.90
3023;DHT22;1521;53.584;9.938;2023-01-31T15:13:41;7.20;99.90
3023;DHT22;1521;53.584;9.938;2023-01-31T15:19:34;7.20;99.90
3023;DHT22;1521;53.584;9.938;2023-01-31T15:24:09;7.20;99.90
3023;DHT22;1521;53.584;9.938;2023-01-31T15:26:38;7.20;53.50
3023;DHT22;1521;53.584;9.938;2023-01-31T15:29:05;7.10;29.50
3023;DHT22;1521;53.584;9.938;2023-01-31T15:31:42;7.10;20.60
3023;DHT22;1521;53.584;9.938;2023-01-31T15:34:18;7.10;17.50
3023;DHT22;1521;53.584;9.938;2023-01-31T15:39:29;7.10;13.40
3023;DHT22;1521;53.584;9.938;2023-01-31T15:41:56;7.10;1.00
3023;DHT22;1521;53.584;9.938;2023-01-31T15:44:24;7.20;1.00
3023;DHT22;1521;53.584;9.938;2023-01-31T15:46:53;7.20;1.00
3023;DHT22;1521;53.584;9.938;2023-01-31T15:49:29;7.20;1.00
3023;DHT22;1521;53.584;9.938;2023-01-31T15:52:15;7.20;1.00
3023;DHT22;1521;53.584;9.938;2023-01-31T15:54:55;7.20;1.00
3023;DHT22;1521;53.584;9.938;2023-01-31T15:57:51;7.30;1.00
3023;DHT22;1521;53.584;9.938;2023-01-31T16:00:27;7.30;99.90
3023;DHT22;1521;53.584;9.938;2023-01-31T16:02:53;7.20;99.90
3023;DHT22;1521;53.584;9.938;2023-01-31T16:05:27;7.20;99.90
3023;DHT22;1521;53.584;9.938;2023-01-31T16:07:54;7.20;99.90
3023;DHT22;1521;53.584;9.938;2023-01-31T16:10:19;7.30;99.90
3023;DHT22;1521;53.584;9.938;2023-01-31T16:12:48;7.30;99.90
3023;DHT22;1521;53.584;9.938;2023-01-31T16:15:22;7.30;99.90
3023;DHT22;1521;53.584;9.938;2023-01-31T16:17:48;6.90;1.00
3023;DHT22;1521;53.584;9.938;2023-01-31T16:28:23;5.10;1.00
3023;DHT22;1521;53.584;9.938;2023-01-31T16:30:49;4.90;1.00
3023;DHT22;1521;53.584;9.938;2023-01-31T16:33:16;4.90;1.00
3023;DHT22;1521;53.584;9.938;2023-01-31T16:35:42;4.90;1.00
3023;DHT22;1521;53.584;9.938;2023-01-31T16:38:19;4.80;1.00
3023;DHT22;1521;53.584;9.938;2023-01-31T16:40:50;4.80;1.00
3023;DHT22;1521;53.584;9.938;2023-01-31T16:43:34;4.80;1.00
3023;DHT22;1521;53.584;9.938;2023-01-31T16:46:02;4.80;1.00
3023;DHT22;1521;53.584;9.938;2023-01-31T16:48:30;4.80;1.00
3023;DHT22;1521;53.584;9.938;2023-01-31T16:50:58;4.80;1.00
3023;DHT22;1521;53.584;9.938;2023-01-31T17:01:29;4.90;1.00
3023;DHT22;1521;53.584;9.938;2023-01-31T17:06:33;5.20;1.00
3023;DHT22;1521;53.584;9.938;2023-01-31T17:09:00;5.30;1.00
3023;DHT22;1521;53.584;9.938;2023-01-31T17:11:26;5.30;99.90
3023;DHT22;1521;53.584;9.938;2023-01-31T17:13:52;5.40;99.90
3023;DHT22;1521;53.584;9.938;2023-01-31T17:16:22;5.50;99.90
3023;DHT22;1521;53.584;9.938;2023-01-31T17:18:52;5.50;99.90
3023;DHT22;1521;53.584;9.938;2023-01-31T17:21:20;5.50;99.90
3023;DHT22;1521;53.584;9.938;2023-01-31T17:23:47;5.70;1.00
3023;DHT22;1521;53.584;9.938;2023-01-31T17:26:15;5.80;1.00
3023;DHT22;1521;53.584;9.938;2023-01-31T17:28:41;5.80;99.90
3023;DHT22;1521;53.584;9.938;2023-01-31T17:31:16;5.80;99.90
3023;DHT22;1521;53.584;9.938;2023-01-31T17:33:42;5.80;1.00
3023;DHT22;1521;53.584;9.938;2023-01-31T17:36:08;5.80;1.00
3023;DHT22;1521;53.584;9.938;2023-01-31T17:38:34;5.80;65.20
3023;DHT22;1521;53.584;9.938;2023-01-31T17:41:00;5.90;99.90
3023;DHT22;1521;53.584;9.938;2023-01-31T17:43:25;5.90;1.00
3023;DHT22;1521;53.584;9.938;2023-01-31T17:45:51;5.90;1.00
3023;DHT22;1521;53.584;9.938;2023-01-31T17:48:17;5.90;99.90
3023;DHT22;1521;53.584;9.938;2023-01-31T17:50:43;6.00;99.90
3023;DHT22;1521;53.584;9.938;2023-01-31T17:53:14;6.00;1.00
3023;DHT22;1521;53.584;9.938;2023-01-31T17:55:40;5.90;1.00
3023;DHT22;1521;53.584;9.938;2023-01-31T17:58:08;5.90;99.90
3023;DHT22;1521;53.584;9.938;2023-01-31T18:00:36;5.90;99.90
3023;DHT22;1521;53.584;9.938;2023-01-31T18:03:01;5.90;99.90
3023;DHT22;1521;53.584;9.938;2023-01-31T18:05:27;5.80;1.00
3023;DHT22;1521;53.584;9.938;2023-01-31T18:07:52;5.80;99.90
3023;DHT22;1521;53.584;9.938;2023-01-31T18:10:18;5.80;1.00
3023;DHT22;1521;53.584;9.938;2023-01-31T18:12:44;5.70;1.00
3023;DHT22;1521;53.584;9.938;2023-01-31T18:15:10;5.70;1.00
3023;DHT22;1521;53.584;9.938;2023-01-31T18:17:35;5.70;99.90
3023;DHT22;1521;53.584;9.938;2023-01-31T18:20:01;5.70;99.90
3023;DHT22;1521;53.584;9.938;2023-01-31T18:22:27;5.70;1.00
3023;DHT22;1521;53.584;9.938;2023-01-31T18:24:52;5.80;99.90
3023;DHT22;1521;53.584;9.938;2023-01-31T18:27:18;5.80;16.90
3023;DHT22;1521;53.584;9.938;2023-01-31T18:29:43;5.80;99.90
3023;DHT22;1521;53.584;9.938;2023-01-31T18:32:09;5.80;1.00
3023;DHT22;1521;53.584;9.938;2023-01-31T18:34:35;5.80;99.90
3023;DHT22;1521;53.584;9.938;2023-01-31T18:37:03;5.70;1.00
3023;DHT22;1521;53.584;9.938;2023-01-31T18:39:37;5.80;1.00
3023;DHT22;1521;53.584;9.938;2023-01-31T18:42:02;5.80;1.00
3023;DHT22;1521;53.584;9.938;2023-01-31T18:44:28;5.80;1.00
3023;DHT22;1521;53.584;9.938;2023-01-31T18:46:54;5.80;1.00
3023;DHT22;1521;53.584;9.938;2023-01-31T18:49:20;5.70;1.00
3023;DHT22;1521;53.584;9.938;2023-01-31T18:51:45;5.80;1.00
3023;DHT22;1521;53.584;9.938;2023-01-31T18:54:11;5.80;1.00
3023;DHT22;1521;53.584;9.938;2023-01-31T18:56:37;5.80;1.00
3023;DHT22;1521;53.584;9.938;2023-01-31T18:59:03;5.80;1.00
3023;DHT22;1521;53.584;9.938;2023-01-31T19:01:28;5.90;2.30
3023;DHT22;1521;53.584;9.938;2023-01-31T19:03:54;6.00;1.00
3023;DHT22;1521;53.584;9.938;2023-01-31T19:06:27;6.00;99.90
3023;DHT22;1521;53.584;9.938;2023-01-31T19:08:56;6.00;1.00
3023;DHT22;1521;53.584;9.938;2023-01-31T19:11:24;6.00;1.00
3023;DHT22;1521;53.584;9.938;2023-01-31T19:13:50;5.90;99.90
3023;DHT22;1521;53.584;9.938;2023-01-31T19:16:18;5.80;99.90
3023;DHT22;1521;53.584;9.938;2023-01-31T19:18:45;5.70;1.00
3023;DHT22;1521;53.584;9.938;2023-01-31T19:21:25;5.70;99.90
3023;DHT22;1521;53.584;9.938;2023-01-31T19:23:54;5.60;99.90
3023;DHT22;1521;53.584;9.938;2023-01-31T19:26:20;5.60;99.90
3023;DHT22;1521;53.584;9.938;2023-01-31T19:28:47;5.50;36.60
3023;DHT22;1521;53.584;9.938;2023-01-31T19:31:15;5.50;99.90
3023;DHT22;1521;53.584;9.938;2023-01-31T19:33:41;5.50;99.90
3023;DHT22;1521;53.584;9.938;2023-01-31T19:36:11;5.50;1.00
3023;DHT22;1521;53.584;9.938;2023-01-31T19:38:38;5.50;99.90
3023;DHT22;1521;53.584;9.938;2023-01-31T19:41:09;5.50;99.90
3023;DHT22;1521;53.584;9.938;2023-01-31T19:43:35;5.50;1.00
3023;DHT22;1521;53.584;9.938;2023-01-31T19:46:01;5.60;99.90
3023;DHT22;1521;53.584;9.938;2023-01-31T19:48:27;5.60;1.00
3023;DHT22;1521;53.584;9.938;2023-01-31T19:50:53;5.60;99.90
3023;DHT22;1521;53.584;9.938;2023-01-31T19:53:19;5.60;1.00
3023;DHT22;1521;53.584;9.938;2023-01-31T19:55:49;5.60;53.60
3023;DHT22;1521;53.584;9.938;2023-01-31T19:58:15;5.60;1.00
3023;DHT22;1521;53.584;9.938;2023-01-31T20:00:40;5.60;99.90
3023;DHT22;1521;53.584;9.938;2023-01-31T20:03:06;5.60;99.90
3023;DHT22;1521;53.584;9.938;2023-01-31T20:05:32;5.70;82.50
3023;DHT22;1521;53.584;9.938;2023-01-31T20:07:57;5.60;99.90
3023;DHT22;1521;53.584;9.938;2023-01-31T20:10:23;5.70;1.00
3023;DHT22;1521;53.584;9.938;2023-01-31T20:12:49;5.70;1.00
3023;DHT22;1521;53.584;9.938;2023-01-31T20:15:15;5.70;1.00
3023;DHT22;1521;53.584;9.938;2023-01-31T20:17:40;5.60;1.00
3023;DHT22;1521;53.584;9.938;2023-01-31T20:20:07;5.60;99.90
3023;DHT22;1521;53.584;9.938;2023-01-31T20:22:33;5.70;99.90
3023;DHT22;1521;53.584;9.938;2023-01-31T20:25:02;5.60;1.00
3023;DHT22;1521;53.584;9.938;2023-01-31T20:27:29;5.60;99.90
3023;DHT22;1521;53.584;9.938;2023-01-31T20:29:58;5.60;1.00
3023;DHT22;1521;53.584;9.938;2023-01-31T20:32:24;5.70;99.90
3023;DHT22;1521;53.584;9.938;2023-01-31T20:34:49;5.70;99.90
3023;DHT22;1521;53.584;9.938;2023-01-31T20:37:15;5.70;99.90
3023;DHT22;1521;53.584;9.938;2023-01-31T20:39:40;5.70;1.00
3023;DHT22;1521;53.584;9.938;2023-01-31T20:42:06;5.70;24.80
3023;DHT22;1521;53.584;9.938;2023-01-31T20:44:32;5.70;99.90
3023;DHT22;1521;53.584;9.938;2023-01-31T20:46:58;5.70;1.00
3023;DHT22;1521;53.584;9.938;2023-01-31T20:49:23;5.70;79.90
3023;DHT22;1521;53.584;9.938;2023-01-31T20:51:49;5.70;99.90
3023;DHT22;1521;53.584;9.938;2023-01-31T20:54:15;5.70;99.90
3023;DHT22;1521;53.584;9.938;2023-01-31T20:56:40;5.70;99.90
3023;DHT22;1521;53.584;9.938;2023-01-31T20:59:06;5.60;99.90
3023;DHT22;1521;53.584;9.938;2023-01-31T21:01:32;5.50;1.00
3023;DHT22;1521;53.584;9.938;2023-01-31T21:03:57;5.40;99.90
3023;DHT22;1521;53.584;9.938;2023-01-31T21:06:23;5.30;1.00
3023;DHT22;1521;53.584;9.938;2023-01-31T21:08:48;5.30;1.00
3023;DHT22;1521;53.584;9.938;2023-01-31T21:11:14;5.30;1.00
3023;DHT22;1521;53.584;9.938;2023-01-31T21:13:40;5.30;1.00
3023;DHT22;1521;53.584;9.938;2023-01-31T21:16:09;5.20;1.00
3023;DHT22;1521;53.584;9.938;2023-01-31T21:18:37;5.20;1.00
3023;DHT22;1521;53.584;9.938;2023-01-31T21:21:08;5.20;1.00
3023;DHT22;1521;53.584;9.938;2023-01-31T21:23:35;5.20;1.00
3023;DHT22;1521;53.584;9.938;2023-01-31T21:26:03;5.30;99.90
3023;DHT22;1521;53.584;9.938;2023-01-31T21:28:29;5.30;99.90
3023;DHT22;1521;53.584;9.938;2023-01-31T21:31:03;5.30;1.00
3023;DHT22;1521;53.584;9.938;2023-01-31T21:33:29;5.40;99.90
3023;DHT22;1521;53.584;9.938;2023-01-31T21:35:55;5.40;99.90
3023;DHT22;1521;53.584;9.938;2023-01-31T21:38:23;5.40;1.00
3023;DHT22;1521;53.584;9.938;2023-01-31T21:40:49;5.40;99.90
3023;DHT22;1521;53.584;9.938;2023-01-31T21:43:35;5.50;32.50
3023;DHT22;1521;53.584;9.938;2023-01-31T21:46:08;5.50;1.00
3023;DHT22;1521;53.584;9.938;2023-01-31T21:48:35;5.50;1.00
3023;DHT22;1521;53.584;9.938;2023-01-31T21:51:06;5.50;1.00
3023;DHT22;1521;53.584;9.938;2023-01-31T21:53:33;5.60;99.90
3023;DHT22;1521;53.584;9.938;2023-01-31T21:56:18;5.60;1.00
3023;DHT22;1521;53.584;9.938;2023-01-31T21:58:45;5.60;99.90
3023;DHT22;1521;53.584;9.938;2023-01-31T22:01:17;5.70;99.90
3023;DHT22;1521;53.584;9.938;2023-01-31T22:03:45;5.70;1.00
3023;DHT22;1521;53.584;9.938;2023-01-31T22:06:13;5.60;1.00
3023;DHT22;1521;53.584;9.938;2023-01-31T22:08:39;5.60;99.90
3023;DHT22;1521;53.584;9.938;2023-01-31T22:11:10;5.60;1.00
3023;DHT22;1521;53.584;9.938;2023-01-31T22:13:36;5.50;99.90
3023;DHT22;1521;53.584;9.938;2023-01-31T22:16:07;5.40;99.90
3023;DHT22;1521;53.584;9.938;2023-01-31T22:18:34;5.50;99.90
3023;DHT22;1521;53.584;9.938;2023-01-31T22:21:08;5.50;99.90
3023;DHT22;1521;53.584;9.938;2023-01-31T22:23:36;5.50;99.90
3023;DHT22;1521;53.584;9.938;2023-01-31T22:26:07;5.50;99.90
3023;DHT22;1521;53.584;9.938;2023-01-31T22:28:33;5.50;1.00
3023;DHT22;1521;53.584;9.938;2023-01-31T22:30:59;5.50;99.90
3023;DHT22;1521;53.584;9.938;2023-01-31T22:33:27;5.60;99.90
3023;DHT22;1521;53.584;9.938;2023-01-31T22:35:52;5.60;1.00
3023;DHT22;1521;53.584;9.938;2023-01-31T22:38:18;5.60;99.90
3023;DHT22;1521;53.584;9.938;2023-01-31T22:40:44;5.60;99.90
3023;DHT22;1521;53.584;9.938;2023-01-31T22:43:12;5.60;22.50
3023;DHT22;1521;53.584;9.938;2023-01-31T22:45:42;5.60;99.90
3023;DHT22;1521;53.584;9.938;2023-01-31T22:48:07;5.70;93.40
3023;DHT22;1521;53.584;9.938;2023-01-31T22:50:33;5.70;1.00
3023;DHT22;1521;53.584;9.938;2023-01-31T22:52:59;5.70;99.90
3023;DHT22;1521;53.584;9.938;2023-01-31T22:55:25;5.70;1.00
3023;DHT22;1521;53.584;9.938;2023-01-31T22:57:51;5.70;99.90
3023;DHT22;1521;53.584;9.938;2023-01-31T23:00:17;5.70;99.90
3023;DHT22;1521;53.584;9.938;2023-01-31T23:02:43;5.70;1.00
3023;DHT22;1521;53.584;9.938;2023-01-31T23:05:09;5.70;25.60
3023;DHT22;1521;53.584;9.938;2023-01-31T23:07:35;5.60;1.00
3023;DHT22;1521;53.584;9.938;2023-01-31T23:10:00;5.60;99.90
3023;DHT22;1521;53.584;9.938;2023-01-31T23:12:26;5.50;1.00
3023;DHT22;1521;53.584;9.938;2023-01-31T23:14:52;5.50;1.00
3023;DHT22;1521;53.584;9.938;2023-01-31T23:17:17;5.50;1.00
3023;DHT22;1521;53.584;9.938;2023-01-31T23:20:01;5.50;1.00
3023;DHT22;1521;53.584;9.938;2023-01-31T23:22:27;5.50;1.00
3023;DHT22;1521;53.584;9.938;2023-01-31T23:24:53;5.50;1.00
3023;DHT22;1521;53.584;9.938;2023-01-31T23:27:18;5.50;1.00
3023;DHT22;1521;53.584;9.938;2023-01-31T23:29:44;5.40;49.40
3023;DHT22;1521;53.584;9.938;2023-01-31T23:32:09;5.40;90.40
3023;DHT22;1521;53.584;9.938;2023-01-31T23:34:35;5.40;1.00
3023;DHT22;1521;53.584;9.938;2023-01-31T23:37:00;5.40;99.90
3023;DHT22;1521;53.584;9.938;2023-01-31T23:39:26;5.40;1.00
3023;DHT22;1521;53.584;9.938;2023-01-31T23:41:52;5.40;1.00
3023;DHT22;1521;53.584;9.938;2023-01-31T23:44:17;5.40;99.90
3023;DHT22;1521;53.584;9.938;2023-01-31T23:46:43;5.50;23.90
3023;DHT22;1521;53.584;9.938;2023-01-31T23:49:08;5.50;99.90
3023;DHT22;1521;53.584;9.938;2023-01-31T23:51:34;5.50;1.00
3023;DHT22;1521;53.584;9.938;2023-01-31T23:54:00;5.50;36.30
3023;DHT22;1521;53.584;9.938;2023-01-31T23:56:25;5.40;1.00
3023;DHT22;1521;53.584;9.938;2023-01-31T23:58:52;5.40;99.90
